Time;durP1;ratioP1;P1;durP2;ratioP2;P2;SDS_P1;SDS_P2;PMS_P1;PMS_P2;Temp;Humidity;BMP_temperature;BMP_pressure;BME280_temperature;BME280_humidity;BME280_pressure;Samples;Min_cycle;Max_cycle;Signal;HPM_P1;HPM_P2
2021/04/13 00:01:25;;;;;;;5.78;3.85;;;;;;;5.48;69.46;101017.31;1732399;82;25266;-86
2021/04/13 00:04:06;;;;;;;8.60;5.00;;;;;;;5.46;69.22;101012.73;1734182;82;25675;-86
2021/04/13 00:06:42;;;;;;;8.10;4.97;;;;;;;5.43;69.21;101018.97;1733543;82;25296;-84
2021/04/13 00:09:31;;;;;;;6.62;4.47;;;;;;;5.40;69.01;101020.95;1736073;82;25234;-84
2021/04/13 00:12:02;;;;;;;8.60;4.87;;;;;;;5.41;68.99;101018.26;1678512;84;25260;-85
2021/04/13 00:14:33;;;;;;;11.70;5.15;;;;;;;5.45;69.02;101028.73;1674045;85;25425;-84
2021/04/13 00:17:04;;;;;;;7.55;5.40;;;;;;;5.48;69.18;101028.98;1698486;84;25727;-85
2021/04/13 00:19:38;;;;;;;7.87;5.45;;;;;;;5.43;69.10;101025.90;1671715;84;25288;-85
2021/04/13 00:22:04;;;;;;;9.18;5.80;;;;;;;5.39;69.07;101024.02;1726528;83;25229;-84
2021/04/13 00:24:30;;;;;;;9.37;5.50;;;;;;;5.38;69.07;101026.74;1730880;82;26899;-84
2021/04/13 00:27:02;;;;;;;7.70;5.63;;;;;;;5.41;69.20;101032.98;1737675;81;25482;-85
2021/04/13 00:29:31;;;;;;;9.78;6.30;;;;;;;5.41;68.90;101022.63;1750451;81;25611;-84
2021/04/13 00:32:01;;;;;;;8.73;5.70;;;;;;;5.41;68.87;101018.26;1750310;81;25561;-85
2021/04/13 00:35:09;;;;;;;7.05;4.97;;;;;;;5.41;68.88;101014.84;1750632;81;25588;-85
2021/04/13 00:37:30;;;;;;;9.58;5.58;;;;;;;5.39;69.01;101014.13;1751031;81;25811;-84
2021/04/13 00:40:24;;;;;;;7.45;5.62;;;;;;;5.34;68.97;101007.98;1750513;80;25338;-85
2021/04/13 00:42:53;;;;;;;6.40;4.90;;;;;;;5.31;68.92;101015.99;1750659;81;25858;-85
2021/04/13 00:45:30;;;;;;;7.20;5.47;;;;;;;5.35;69.10;101021.31;1750474;81;25713;-85
2021/04/13 00:47:59;;;;;;;8.60;5.20;;;;;;;5.34;68.96;101021.77;1749255;81;25700;-86
2021/04/13 00:50:39;;;;;;;8.13;5.50;;;;;;;5.30;69.12;101023.42;1729734;81;25399;-84
2021/04/13 00:53:13;;;;;;;6.37;4.35;;;;;;;5.27;69.25;101027.55;1749164;81;25887;-84
2021/04/13 00:55:50;;;;;;;7.55;5.00;;;;;;;5.21;69.56;101026.68;1750624;81;25860;-83
2021/04/13 00:58:30;;;;;;;6.70;4.83;;;;;;;5.19;69.67;101033.77;1739319;81;25459;-85
2021/04/13 01:01:01;;;;;;;6.30;4.72;;;;;;;5.17;69.70;101025.27;1751799;81;25191;-85
2021/04/13 01:03:29;;;;;;;6.95;4.75;;;;;;;5.12;69.51;101027.72;1771322;80;25238;-84
2021/04/13 01:05:58;;;;;;;7.92;4.70;;;;;;;5.10;69.56;101040.42;1768065;81;25246;-84
2021/04/13 01:08:39;;;;;;;7.65;4.47;;;;;;;5.02;69.85;101035.83;1761441;80;26454;-85
2021/04/13 01:11:19;;;;;;;5.55;4.15;;;;;;;4.98;69.64;101032.27;1750131;81;25267;-85
2021/04/13 01:13:59;;;;;;;10.75;3.80;;;;;;;4.96;69.62;101041.91;1750219;82;25784;-84
2021/04/13 01:16:34;;;;;;;5.65;4.28;;;;;;;4.94;69.63;101029.53;1749981;81;25719;-84
2021/04/13 01:19:12;;;;;;;7.22;3.95;;;;;;;4.90;69.66;101033.64;1728778;82;25404;-85
2021/04/13 01:22:02;;;;;;;6.70;4.20;;;;;;;4.89;69.69;101032.48;1749114;81;25843;-84
2021/04/13 01:24:39;;;;;;;5.90;4.33;;;;;;;4.88;69.65;101038.58;1741795;81;25678;-84
2021/04/13 01:27:10;;;;;;;5.05;3.65;;;;;;;4.87;69.51;101033.87;1748782;81;25254;-84
2021/04/13 01:29:37;;;;;;;9.08;4.65;;;;;;;4.84;69.43;101028.91;1768563;81;25688;-83
2021/04/13 01:32:06;;;;;;;7.60;4.22;;;;;;;4.84;69.52;101031.50;1768742;81;25275;-83
2021/04/13 01:34:46;;;;;;;5.33;3.47;;;;;;;4.83;69.34;101022.57;1768622;81;25770;-83
2021/04/13 01:40:27;;;;;;;6.15;3.72;;;;;;;4.83;69.35;101025.98;1768411;81;25243;-85
2021/04/13 01:42:33;;;;;;;7.67;4.00;;;;;;;4.85;69.26;101020.20;1733459;81;25253;-83
2021/04/13 01:45:19;;;;;;;5.67;3.40;;;;;;;4.88;69.20;101017.85;1768510;81;25215;-83
2021/04/13 01:47:46;;;;;;;7.45;3.80;;;;;;;4.87;69.24;101017.03;1768440;81;25640;-84
2021/04/13 01:50:20;;;;;;;8.20;3.77;;;;;;;4.83;69.07;101012.21;1768276;81;25248;-84
2021/04/13 01:52:50;;;;;;;4.17;2.80;;;;;;;4.81;69.02;101016.19;1768443;80;25396;-84
2021/04/13 01:55:23;;;;;;;5.55;3.20;;;;;;;4.77;68.86;101021.70;1768667;80;25377;-84
2021/04/13 01:58:16;;;;;;;4.37;2.72;;;;;;;4.73;68.81;101021.10;1768347;81;25394;-85
2021/04/13 02:01:07;;;;;;;4.35;3.17;;;;;;;4.74;68.75;101033.58;1767245;81;25654;-83
2021/04/13 02:03:50;;;;;;;7.95;3.98;;;;;;;4.76;68.54;101034.30;1744349;81;25427;-84
2021/04/13 02:06:37;;;;;;;5.42;3.65;;;;;;;4.75;68.47;101034.77;1734589;82;25342;-84
2021/04/13 02:09:29;;;;;;;6.35;3.85;;;;;;;4.77;68.34;101042.41;1737234;82;25182;-83
2021/04/13 02:11:55;;;;;;;4.62;3.17;;;;;;;4.76;68.21;101039.48;1733464;82;25769;-83
2021/04/13 02:14:22;;;;;;;4.85;3.70;;;;;;;4.72;68.26;101041.47;1732231;82;26404;-83
2021/04/13 02:16:54;;;;;;;5.00;3.50;;;;;;;4.71;68.27;101041.09;1647197;84;25270;-83
2021/04/13 02:19:22;;;;;;;5.53;4.05;;;;;;;4.71;68.32;101047.56;1655450;85;25217;-85
2021/04/13 02:21:58;;;;;;;5.37;3.67;;;;;;;4.74;68.28;101042.64;1733905;82;25227;-86
2021/04/13 02:24:33;;;;;;;4.92;3.90;;;;;;;4.75;68.37;101045.12;1689991;84;25651;-83
2021/04/13 02:27:04;;;;;;;5.53;4.00;;;;;;;4.71;68.42;101043.69;1717959;82;25699;-83
2021/04/13 02:29:47;;;;;;;7.90;4.60;;;;;;;4.67;68.55;101038.38;1745356;81;25231;-84
2021/04/13 02:32:26;;;;;;;6.17;4.20;;;;;;;4.66;68.55;101041.89;1744446;81;25417;-83
2021/04/13 02:35:01;;;;;;;5.92;4.70;;;;;;;4.68;69.01;101046.49;1745567;81;34602;-86
2021/04/13 02:37:38;;;;;;;7.33;4.53;;;;;;;4.64;68.93;101043.78;1745045;81;25200;-85
2021/04/13 02:40:16;;;;;;;6.65;4.90;;;;;;;4.63;68.96;101038.23;1736758;82;25900;-84
2021/04/13 02:42:52;;;;;;;6.45;5.17;;;;;;;4.61;69.25;101039.65;1736726;82;25348;-84
2021/04/13 02:45:32;;;;;;;7.75;4.20;;;;;;;4.60;69.08;101032.80;1745796;81;25208;-83
2021/04/13 02:48:07;;;;;;;7.00;4.85;;;;;;;4.60;69.16;101032.80;1745819;82;25219;-84
2021/04/13 02:50:37;;;;;;;10.80;5.87;;;;;;;4.56;69.23;101034.44;1745845;82;25191;-82
2021/04/13 02:53:06;;;;;;;6.58;4.37;;;;;;;4.56;69.32;101038.33;1746025;81;26329;-84
2021/04/13 02:55:37;;;;;;;5.50;4.12;;;;;;;4.59;69.28;101041.98;1745942;81;25451;-83
2021/04/13 02:58:08;;;;;;;6.87;4.50;;;;;;;4.60;69.20;101041.04;1745614;81;25227;-83
2021/04/13 03:00:47;;;;;;;7.55;4.95;;;;;;;4.60;69.02;101033.27;1745703;82;25704;-83
2021/04/13 03:03:18;;;;;;;5.95;4.62;;;;;;;4.56;69.13;101039.14;1731968;82;25282;-84
2021/04/13 03:05:52;;;;;;;5.15;4.42;;;;;;;4.53;69.14;101033.34;1730635;82;25680;-83
2021/04/13 03:08:19;;;;;;;6.53;4.17;;;;;;;4.54;69.48;101038.89;1734801;82;25627;-83
2021/04/13 03:10:58;;;;;;;5.95;4.20;;;;;;;4.53;69.27;101036.78;1716228;82;25295;-83
2021/04/13 03:13:32;;;;;;;4.40;3.80;;;;;;;4.55;69.43;101035.36;1736941;82;25777;-84
2021/04/13 03:15:59;;;;;;;7.60;4.80;;;;;;;4.54;69.58;101035.83;1736679;82;25358;-83
2021/04/13 03:18:51;;;;;;;5.62;4.15;;;;;;;4.54;69.49;101041.48;1736747;82;25742;-84
2021/04/13 03:21:30;;;;;;;5.78;4.35;;;;;;;4.52;70.35;101038.99;1716056;82;25274;-85
2021/04/13 03:24:00;;;;;;;6.27;4.53;;;;;;;4.44;70.51;101039.53;1737077;82;25307;-83
2021/04/13 03:26:34;;;;;;;9.80;4.95;;;;;;;4.38;70.88;101042.55;1736595;82;25227;-82
2021/04/13 03:29:11;;;;;;;8.28;4.40;;;;;;;4.36;70.98;101044.89;1715734;82;25764;-82
2021/04/13 03:31:39;;;;;;;7.42;4.60;;;;;;;4.32;71.89;101050.76;1736260;82;25705;-85
2021/04/13 03:34:06;;;;;;;6.75;4.58;;;;;;;4.26;72.21;101046.49;1737440;82;25287;-87
2021/04/13 03:36:34;;;;;;;8.13;4.85;;;;;;;4.21;72.26;101054.09;1736097;82;25260;-85
2021/04/13 03:39:25;;;;;;;8.55;5.05;;;;;;;4.15;73.25;101045.95;1736341;82;25778;-84
2021/04/13 03:41:52;;;;;;;7.67;5.42;;;;;;;4.10;73.24;101046.72;1736620;82;25256;-83
2021/04/13 03:44:19;;;;;;;10.00;5.05;;;;;;;4.08;73.69;101051.98;1736652;81;25698;-85
2021/04/13 03:46:46;;;;;;;11.57;5.35;;;;;;;4.07;73.88;101052.94;1736638;82;25212;-85
2021/04/13 03:49:32;;;;;;;10.30;5.25;;;;;;;4.06;74.62;101049.14;1736290;82;25327;-84
2021/04/13 03:52:28;;;;;;;11.63;5.60;;;;;;;4.07;73.61;101050.34;1736335;82;25224;-84
2021/04/13 03:54:54;;;;;;;7.72;5.10;;;;;;;4.08;73.79;101058.93;1736621;81;25390;-83
2021/04/13 03:57:33;;;;;;;7.90;5.15;;;;;;;4.04;75.00;101054.45;1736768;82;25641;-85
2021/04/13 04:00:03;;;;;;;8.00;5.40;;;;;;;4.00;74.71;101064.16;1736994;82;25780;-85
2021/04/13 04:02:31;;;;;;;9.55;5.00;;;;;;;3.97;74.96;101055.78;1737710;82;25415;-85
2021/04/13 04:05:18;;;;;;;9.63;5.22;;;;;;;3.90;75.13;101060.56;1728803;83;25658;-86
2021/04/13 04:07:58;;;;;;;9.35;4.83;;;;;;;3.86;74.95;101044.06;1729435;82;25648;-84
2021/04/13 04:10:46;;;;;;;10.85;5.72;;;;;;;3.88;75.87;101055.13;1729978;82;25640;-84
2021/04/13 04:13:17;;;;;;;9.65;5.55;;;;;;;3.87;75.61;101062.51;1728687;82;25311;-85
2021/04/13 04:15:55;;;;;;;6.58;4.42;;;;;;;3.84;75.18;101066.59;1729514;82;25235;-84
2021/04/13 04:18:41;;;;;;;6.87;4.80;;;;;;;3.82;76.31;101072.33;1724542;82;25639;-84
2021/04/13 04:21:31;;;;;;;7.92;4.60;;;;;;;3.75;76.47;101080.98;1729395;82;25695;-85
2021/04/13 04:24:21;;;;;;;8.50;5.30;;;;;;;3.70;76.18;101079.98;1726415;82;25632;-84
2021/04/13 04:26:56;;;;;;;8.27;4.80;;;;;;;3.69;76.75;101078.34;1737217;81;25231;-85
2021/04/13 04:29:33;;;;;;;10.78;5.92;;;;;;;3.65;76.56;101070.41;1761219;81;25364;-84
2021/04/13 04:32:32;;;;;;;11.30;5.67;;;;;;;3.65;77.41;101075.59;1759392;81;25476;-84
2021/04/13 04:35:03;;;;;;;9.90;5.83;;;;;;;3.60;77.87;101081.99;1761580;81;25312;-84
2021/04/13 04:37:50;;;;;;;9.85;5.67;;;;;;;3.60;77.07;101086.72;1761563;81;25601;-84
2021/04/13 04:40:30;;;;;;;9.30;5.35;;;;;;;3.65;77.26;101088.98;1761556;81;25281;-83
2021/04/13 04:43:02;;;;;;;11.35;6.12;;;;;;;3.66;77.25;101094.53;1761679;81;25326;-84
2021/04/13 04:45:46;;;;;;;8.13;4.95;;;;;;;3.64;77.62;101098.50;1761437;81;25214;-83
2021/04/13 04:48:29;;;;;;;9.95;6.33;;;;;;;3.58;78.21;101102.79;1761558;81;25203;-82
2021/04/13 04:51:00;;;;;;;13.75;8.30;;;;;;;3.51;78.18;101113.98;1761718;81;26419;-83
2021/04/13 04:53:29;;;;;;;14.23;6.22;;;;;;;3.48;78.21;101119.35;1761627;80;25373;-83
2021/04/13 04:55:57;;;;;;;11.50;6.60;;;;;;;3.48;78.32;101115.95;1761303;81;25200;-83
2021/04/13 04:58:23;;;;;;;11.53;6.97;;;;;;;3.48;79.07;101124.99;1761685;80;25219;-82
2021/04/13 05:00:52;;;;;;;16.05;7.62;;;;;;;3.46;79.04;101130.24;1761644;80;25259;-83
2021/04/13 05:03:19;;;;;;;11.12;6.33;;;;;;;3.47;79.19;101133.69;1762785;81;25549;-82
2021/04/13 05:05:45;;;;;;;10.98;6.95;;;;;;;3.45;79.51;101131.19;1768023;81;25215;-82
2021/04/13 05:08:11;;;;;;;9.75;6.72;;;;;;;3.42;79.20;101130.56;1763316;81;25352;-83
2021/04/13 05:10:37;;;;;;;13.22;5.97;;;;;;;3.43;78.96;101134.33;1742423;81;25675;-82
2021/04/13 05:13:04;;;;;;;9.70;6.13;;;;;;;3.47;79.46;101140.14;1742002;82;25631;-85
2021/04/13 05:15:30;;;;;;;13.85;6.87;;;;;;;3.44;79.79;101141.17;1742243;82;25611;-84
2021/04/13 05:17:56;;;;;;;11.03;5.57;;;;;;;3.42;79.96;101151.23;1742243;82;25326;-85
2021/04/13 05:20:22;;;;;;;10.60;5.70;;;;;;;3.39;80.09;101145.80;1742721;82;25278;-86
2021/04/13 05:22:47;;;;;;;9.97;5.00;;;;;;;3.36;80.08;101154.22;1743465;82;25242;-86
2021/04/13 05:25:15;;;;;;;7.67;5.20;;;;;;;3.32;79.80;101158.27;1743456;82;25673;-86
2021/04/13 05:27:41;;;;;;;9.33;5.00;;;;;;;3.30;79.90;101161.44;1759228;80;25683;-86
2021/04/13 05:30:13;;;;;;;9.83;5.63;;;;;;;3.30;79.92;101168.33;1767861;81;25215;-86
2021/04/13 05:32:39;;;;;;;8.30;5.50;;;;;;;3.25;80.04;101164.77;1767612;81;25234;-85
2021/04/13 05:35:06;;;;;;;16.37;5.40;;;;;;;3.23;80.06;101170.50;1768298;81;25159;-85
2021/04/13 05:37:33;;;;;;;9.30;4.80;;;;;;;3.21;80.75;101167.64;1768000;81;25285;-86
2021/04/13 05:40:04;;;;;;;9.45;5.50;;;;;;;3.18;80.70;101176.41;1723551;81;46585;-86
2021/04/13 05:42:31;;;;;;;;;;;;;;;3.17;80.84;101176.53;1770410;81;25309;-86
2021/04/13 05:44:59;;;;;;;10.23;5.35;;;;;;;3.13;80.69;101178.45;1767195;80;25306;-85
2021/04/13 05:47:29;;;;;;;12.05;6.35;;;;;;;3.10;81.28;101180.77;1766357;81;25423;-85
2021/04/13 05:49:55;;;;;;;8.95;5.08;;;;;;;3.09;81.00;101177.83;1767206;81;25235;-83
2021/04/13 05:52:21;;;;;;;12.30;5.45;;;;;;;3.09;81.82;101172.66;1766732;81;25563;-84
2021/04/13 05:54:47;;;;;;;6.53;3.77;;;;;;;3.07;81.38;101172.39;1767213;81;25529;-83
2021/04/13 05:57:18;;;;;;;11.07;4.70;;;;;;;3.02;82.02;101187.34;1766922;80;31988;-84
2021/04/13 05:59:44;;;;;;;9.70;3.98;;;;;;;2.92;82.47;101179.79;1766557;81;25235;-84
2021/04/13 06:02:14;;;;;;;5.72;3.37;;;;;;;2.82;82.42;101184.24;1758062;81;25215;-83
2021/04/13 06:04:40;;;;;;;7.62;4.22;;;;;;;2.79;82.03;101187.02;1746420;81;25684;-83
2021/04/13 06:07:06;;;;;;;9.38;4.35;;;;;;;2.79;82.14;101189.59;1742714;82;25255;-83
2021/04/13 06:09:33;;;;;;;10.55;4.20;;;;;;;2.78;82.42;101191.83;1737870;81;25362;-82
2021/04/13 06:11:59;;;;;;;6.05;3.30;;;;;;;2.79;82.45;101192.65;1678947;84;25733;-82
2021/04/13 06:14:27;;;;;;;7.10;3.70;;;;;;;2.71;82.58;101191.81;1674479;85;25445;-83
2021/04/13 06:16:53;;;;;;;7.92;3.50;;;;;;;2.67;82.30;101181.30;1699168;84;25615;-82
2021/04/13 06:19:19;;;;;;;7.27;4.30;;;;;;;2.66;82.65;101181.77;1698910;84;25280;-83
2021/04/13 06:21:45;;;;;;;4.73;3.63;;;;;;;2.65;82.29;101195.60;1699058;83;34944;-84
2021/04/13 06:24:12;;;;;;;6.30;3.42;;;;;;;2.64;82.76;101192.64;1717406;83;25323;-83
2021/04/13 06:26:39;;;;;;;5.08;3.70;;;;;;;2.58;83.29;101189.14;1725265;83;25238;-84
2021/04/13 06:29:05;;;;;;;6.08;3.95;;;;;;;2.54;82.20;101184.28;1715549;83;25590;-84
2021/04/13 06:31:31;;;;;;;8.00;3.90;;;;;;;2.54;82.47;101201.88;1751365;81;25251;-84
2021/04/13 06:33:56;;;;;;;9.60;3.90;;;;;;;2.57;82.23;101205.56;1751620;81;35334;-84
2021/04/13 06:36:26;;;;;;;11.23;5.67;;;;;;;2.62;82.45;101206.59;1751970;81;25271;-84
2021/04/13 06:38:53;;;;;;;10.47;5.20;;;;;;;2.65;82.42;101209.80;1753033;81;25192;-85
2021/04/13 06:41:48;;;;;;;6.67;4.45;;;;;;;2.70;82.12;101204.37;1753147;81;25537;-85
2021/04/13 06:44:52;;;;;;;8.38;5.22;;;;;;;2.69;82.92;101207.03;1747568;81;25225;-85
2021/04/13 06:48:03;;;;;;;12.85;7.72;;;;;;;2.60;82.97;101212.29;1734241;82;25244;-85
2021/04/13 06:50:44;;;;;;;15.75;9.35;;;;;;;2.59;82.93;101220.50;1735010;82;25299;-85
2021/04/13 06:53:49;;;;;;;14.25;7.95;;;;;;;2.58;82.97;101220.11;1735223;82;25205;-86
2021/04/13 06:56:44;;;;;;;16.45;7.65;;;;;;;2.63;83.22;101223.72;1734366;82;25640;-86
2021/04/13 07:00:04;;;;;;;13.32;7.00;;;;;;;2.63;83.06;101218.55;1735105;82;25225;-86
2021/04/13 07:02:58;;;;;;;12.40;7.03;;;;;;;2.68;83.23;101222.16;1749329;81;25258;-86
2021/04/13 07:05:33;;;;;;;13.60;8.30;;;;;;;2.67;83.75;101231.62;1700625;84;25307;-83
2021/04/13 07:08:28;;;;;;;11.68;7.00;;;;;;;2.66;83.50;101233.38;1698022;84;25326;-83
2021/04/13 07:10:59;;;;;;;9.65;5.20;;;;;;;2.66;84.06;101230.80;1660127;86;25943;-85
2021/04/13 07:13:46;;;;;;;7.40;4.65;;;;;;;2.68;83.71;101235.06;1659460;86;25319;-82
2021/04/13 07:16:35;;;;;;;8.70;4.40;;;;;;;2.66;84.12;101233.85;1660714;86;25298;-83
2021/04/13 07:19:26;;;;;;;9.10;5.35;;;;;;;2.64;84.20;101242.96;1661511;86;25299;-85
2021/04/13 07:22:13;;;;;;;10.23;5.47;;;;;;;2.59;84.07;101239.85;1661210;86;25249;-87
2021/04/13 07:25:02;;;;;;;9.35;5.03;;;;;;;2.66;84.01;101246.75;1660298;86;25880;-86
2021/04/13 07:27:51;;;;;;;7.35;4.12;;;;;;;2.68;84.40;101253.13;1660644;85;25283;-86
2021/04/13 07:30:37;;;;;;;8.70;4.67;;;;;;;2.65;84.70;101256.72;1661480;86;25297;-85
2021/04/13 07:33:06;;;;;;;7.95;4.15;;;;;;;2.61;84.61;101245.73;1661640;86;25204;-86
2021/04/13 07:35:38;;;;;;;6.55;4.00;;;;;;;2.64;84.55;101244.72;1660536;86;25249;-84
2021/04/13 07:38:13;;;;;;;7.75;4.83;;;;;;;2.64;84.59;101253.75;1660642;86;25614;-85
2021/04/13 07:40:43;;;;;;;5.37;3.65;;;;;;;2.62;84.98;101255.62;1659564;86;25348;-84
2021/04/13 07:43:31;;;;;;;;;;;;;;;2.52;85.19;101261.77;1682484;83;25244;-83
2021/04/13 07:46:28;;;;;;;7.65;3.20;;;;;;;2.48;85.01;101260.28;1711235;83;25212;-82
2021/04/13 07:49:31;;;;;;;3.15;2.72;;;;;;;2.44;85.44;101269.13;1709934;83;25374;-83
2021/04/13 07:52:20;;;;;;;13.00;6.00;;;;;;;2.38;85.29;101262.58;1712965;83;25657;-85
2021/04/13 07:55:06;;;;;;;6.72;4.15;;;;;;;2.39;86.06;101269.86;1711658;83;25236;-85
2021/04/13 07:57:50;;;;;;;4.12;2.72;;;;;;;2.39;86.06;101269.86;1712289;83;25264;-85
2021/04/13 08:00:26;;;;;;;5.40;3.52;;;;;;;2.33;85.38;101278.78;1713030;83;25227;-86
2021/04/13 08:03:15;;;;;;;6.85;3.52;;;;;;;2.15;85.57;101252.30;1756737;81;25249;-84
2021/04/13 08:05:49;;;;;;;9.90;4.45;;;;;;;2.31;85.82;101281.08;1743306;81;25606;-85
2021/04/13 08:08:37;;;;;;;11.25;5.40;;;;;;;2.28;85.98;101282.55;1740754;82;25257;-87
2021/04/13 08:11:20;;;;;;;6.75;3.60;;;;;;;2.28;85.64;101287.25;1741499;82;25283;-85
2021/04/13 08:13:50;;;;;;;4.90;3.12;;;;;;;2.29;86.25;101285.48;1740781;82;25184;-84
2021/04/13 08:16:38;;;;;;;;;;;;;;;2.28;86.13;101289.83;1743229;82;25299;-82
2021/04/13 08:19:26;;;;;;;7.42;4.12;;;;;;;2.27;86.49;101292.05;1740296;82;25797;-85
2021/04/13 08:22:09;;;;;;;7.15;3.22;;;;;;;2.28;85.87;101288.53;1741044;82;25179;-85
2021/04/13 08:24:52;;;;;;;5.33;3.42;;;;;;;2.29;86.42;101281.63;1743450;82;25252;-87
2021/04/13 08:27:23;;;;;;;6.25;4.08;;;;;;;2.36;86.00;101299.24;1740939;82;25232;-86
2021/04/13 08:30:43;;;;;;;5.47;3.60;;;;;;;2.40;86.24;101293.00;1742544;82;25216;-87
2021/04/13 08:33:23;;;;;;;7.17;4.80;;;;;;;2.41;85.98;101298.98;1741548;82;26553;-83
2021/04/13 08:36:15;;;;;;;6.45;4.25;;;;;;;2.45;85.86;101306.91;1741819;82;25243;-87
2021/04/13 08:38:58;;;;;;;6.08;3.80;;;;;;;2.44;85.92;101311.23;1742114;82;25290;-85
2021/04/13 08:41:48;;;;;;;4.83;3.27;;;;;;;2.43;85.67;101304.42;1741322;82;25196;-84
2021/04/13 08:44:34;;;;;;;6.58;3.58;;;;;;;2.44;86.30;101302.20;1739891;82;25250;-86
2021/04/13 08:47:20;;;;;;;4.58;3.50;;;;;;;2.47;85.81;101310.23;1741597;82;25695;-84
2021/04/13 08:49:57;;;;;;;5.87;4.25;;;;;;;2.50;85.78;101307.94;1741172;82;25250;-85
2021/04/13 08:52:44;;;;;;;6.58;4.42;;;;;;;2.49;86.08;101310.16;1741650;82;25258;-86
2021/04/13 08:55:19;;;;;;;6.65;4.60;;;;;;;2.50;85.99;101313.09;1742700;82;25574;-86
2021/04/13 08:57:53;;;;;;;5.75;3.95;;;;;;;2.51;85.78;101318.61;1741593;82;25156;-86
2021/04/13 09:00:44;;;;;;;7.72;4.35;;;;;;;2.47;85.59;101317.14;1736144;82;25653;-86
2021/04/13 09:03:18;;;;;;;5.50;3.75;;;;;;;2.41;85.17;101328.19;1741555;82;25361;-86
2021/04/13 09:05:48;;;;;;;6.45;4.17;;;;;;;2.25;85.32;101306.77;1741558;80;25306;-86
2021/04/13 09:08:54;;;;;;;;;;;;;;;2.29;85.47;101321.17;1741233;82;25294;-85
2021/04/13 09:11:31;;;;;;;5.05;3.33;;;;;;;2.27;86.02;101321.70;1708611;82;25797;-79
2021/04/13 09:14:40;;;;;;;5.97;3.83;;;;;;;2.25;86.42;101317.55;1707556;82;25715;-86
2021/04/13 09:17:15;;;;;;;8.73;4.83;;;;;;;2.24;87.07;101308.98;1711251;82;25426;-80
2021/04/13 09:20:06;;;;;;;5.12;4.17;;;;;;;2.29;86.66;101317.30;1706561;82;25512;-83
2021/04/13 09:22:47;;;;;;;6.58;3.90;;;;;;;2.39;86.91;101315.83;1709592;82;25803;-77
2021/04/13 09:25:32;;;;;;;;;;;;;;;2.44;87.24;101313.81;1712073;82;25346;-79
2021/04/13 09:28:10;;;;;;;4.80;2.83;;;;;;;2.49;87.31;101311.45;1710223;82;25818;-81
2021/04/13 09:30:43;;;;;;;3.25;2.77;;;;;;;2.54;87.50;101308.14;1710014;82;25332;-77
2021/04/13 09:33:21;;;;;;;6.30;3.27;;;;;;;2.60;87.25;101310.36;1707751;82;25935;-81
2021/04/13 09:36:36;;;;;;;5.87;3.17;;;;;;;2.69;87.02;101307.69;1706352;82;25370;-82
2021/04/13 09:39:33;;;;;;;7.15;4.10;;;;;;;2.79;86.70;101303.65;1635933;86;25809;-80
2021/04/13 09:45:09;;;;;;;4.33;3.25;;;;;;;2.95;86.71;101306.15;1600191;87;25719;-84
2021/04/13 09:48:25;;;;;;;5.53;3.52;;;;;;;3.00;86.65;101306.67;1568398;91;25423;-84
2021/04/13 09:51:05;;;;;;;4.83;2.67;;;;;;;3.05;86.64;101305.47;1566260;91;25233;-83
2021/04/13 09:54:01;;;;;;;4.00;2.67;;;;;;;3.08;86.29;101300.14;1624154;88;25219;-84
2021/04/13 09:56:37;;;;;;;6.78;3.22;;;;;;;3.07;86.33;101301.05;1623435;88;25703;-86
2021/04/13 09:59:40;;;;;;;7.15;3.60;;;;;;;3.08;85.98;101298.00;1623219;88;25292;-85
2021/04/13 10:02:29;;;;;;;6.12;3.02;;;;;;;3.16;85.87;101300.12;1623819;88;25791;-85
2021/04/13 10:05:05;;;;;;;4.85;3.17;;;;;;;3.22;85.83;101303.17;1623911;88;25652;-84
2021/04/13 10:07:58;;;;;;;5.58;3.62;;;;;;;3.26;85.66;101304.63;1624083;88;25407;-85
2021/04/13 10:10:59;;;;;;;7.30;3.47;;;;;;;3.31;85.30;101301.77;1669310;84;25659;-84
2021/04/13 10:14:17;;;;;;;5.40;3.50;;;;;;;3.35;85.21;101298.06;1693917;84;25244;-85
2021/04/13 10:17:08;;;;;;;6.17;3.52;;;;;;;3.41;85.26;101303.31;1694057;84;25404;-84
2021/04/13 10:20:02;;;;;;;9.53;4.47;;;;;;;3.41;84.78;101295.12;1694026;84;25357;-86
2021/04/13 10:23:08;;;;;;;8.43;3.70;;;;;;;3.43;84.86;101290.66;1693045;84;25832;-85
2021/04/13 10:25:57;;;;;;;5.37;3.72;;;;;;;3.48;85.28;101293.79;1704113;83;25648;-86
2021/04/13 10:29:16;;;;;;;8.27;3.90;;;;;;;3.56;84.92;101282.98;1715872;83;25435;-86
2021/04/13 10:32:10;;;;;;;5.65;3.80;;;;;;;3.67;84.92;101287.47;1716536;83;25267;-86
2021/04/13 10:35:13;;;;;;;5.85;3.10;;;;;;;3.69;84.40;101278.69;1715618;83;25311;-85
2021/04/13 10:38:06;;;;;;;6.60;3.35;;;;;;;3.72;84.08;101291.42;1716819;83;25239;-85
2021/04/13 10:41:04;;;;;;;6.25;3.08;;;;;;;3.76;83.93;101290.75;1692787;84;25652;-83
2021/04/13 10:43:50;;;;;;;7.55;4.12;;;;;;;3.79;83.34;101289.26;1692397;84;25689;-84
2021/04/13 10:46:52;;;;;;;4.22;3.15;;;;;;;3.77;83.64;101286.79;1692654;84;25309;-83
2021/04/13 10:49:59;;;;;;;4.83;2.80;;;;;;;3.82;83.57;101292.11;1692609;84;25711;-84
2021/04/13 10:52:41;;;;;;;4.70;2.80;;;;;;;3.85;83.18;101288.06;1692352;84;25445;-84
2021/04/13 10:55:59;;;;;;;6.60;3.90;;;;;;;3.85;83.21;101287.59;1691735;84;25937;-84
2021/04/13 10:58:34;;;;;;;6.17;3.75;;;;;;;3.90;83.19;101288.13;1692121;84;25454;-84
2021/04/13 11:01:41;;;;;;;9.20;4.08;;;;;;;3.95;83.28;101283.47;1691844;84;25770;-85
2021/04/13 11:04:35;;;;;;;4.40;3.45;;;;;;;3.98;83.16;101286.32;1688085;84;25246;-85
2021/04/13 11:07:27;;;;;;;6.30;4.30;;;;;;;4.03;82.83;101279.56;1688268;84;25785;-85
2021/04/13 11:10:37;;;;;;;5.40;3.75;;;;;;;4.09;82.89;101273.98;1686813;84;25738;-84
2021/04/13 11:13:41;;;;;;;6.53;4.33;;;;;;;4.17;82.90;101274.30;1653505;86;25431;-86
2021/04/13 11:16:35;;;;;;;6.12;3.70;;;;;;;4.28;82.86;101278.30;1653337;86;25777;-85
2021/04/13 11:19:20;;;;;;;7.70;4.85;;;;;;;4.34;82.36;101281.80;1643559;86;25294;-86
2021/04/13 11:22:30;;;;;;;5.95;4.05;;;;;;;4.32;81.70;101282.36;1707178;84;25336;-85
2021/04/13 11:25:26;;;;;;;6.37;3.95;;;;;;;4.35;81.94;101285.22;1679285;84;25696;-84
2021/04/13 11:28:26;;;;;;;6.90;4.03;;;;;;;4.38;81.77;101288.42;1693121;84;25781;-84
2021/04/13 11:31:25;;;;;;;7.70;3.90;;;;;;;4.42;81.58;101282.13;1669471;85;25750;-84
2021/04/13 11:34:14;;;;;;;6.55;4.28;;;;;;;4.47;80.93;101281.80;1669212;85;25306;-85
2021/04/13 11:36:57;;;;;;;6.20;3.02;;;;;;;4.50;81.01;101275.14;1669509;85;25241;-84
2021/04/13 11:39:49;;;;;;;6.47;3.72;;;;;;;4.51;80.33;101271.61;1669496;85;26467;-84
2021/04/13 11:42:31;;;;;;;6.20;3.77;;;;;;;4.51;80.22;101275.50;1654873;85;25773;-76
2021/04/13 11:45:26;;;;;;;8.05;4.20;;;;;;;4.53;80.32;101276.67;1650455;85;25755;-78
2021/04/13 11:48:15;;;;;;;6.92;4.08;;;;;;;4.58;80.32;101279.78;1649130;85;26159;-76
2021/04/13 11:51:31;;;;;;;5.80;3.67;;;;;;;4.59;80.35;101277.11;1649611;85;25787;-75
2021/04/13 11:54:19;;;;;;;10.63;4.97;;;;;;;4.65;80.57;101279.74;1651123;85;25941;-80
2021/04/13 11:57:17;;;;;;;12.30;5.15;;;;;;;4.71;79.95;101277.20;1649696;85;26101;-76
2021/04/13 12:00:03;;;;;;;10.65;4.62;;;;;;;4.72;79.17;101278.41;1649489;85;26502;-77
2021/04/13 12:02:31;;;;;;;5.92;3.60;;;;;;;4.74;79.24;101280.87;1644168;85;26326;-79
2021/04/13 12:05:04;;;;;;;7.17;3.72;;;;;;;4.78;79.06;101284.45;1653620;84;25847;-78
2021/04/13 12:07:50;;;;;;;7.22;4.55;;;;;;;4.79;78.74;101277.03;1648619;84;26693;-86
2021/04/13 12:10:37;;;;;;;12.00;4.20;;;;;;;4.81;78.59;101281.66;1645331;85;26040;-82
2021/04/13 12:13:14;;;;;;;7.37;3.65;;;;;;;4.83;78.85;101277.20;1656421;85;25342;-83
2021/04/13 12:15:51;;;;;;;4.15;3.33;;;;;;;4.92;78.62;101281.39;1618942;86;25519;-77
2021/04/13 12:18:41;;;;;;;5.78;3.45;;;;;;;4.94;78.29;101277.77;1624296;84;25963;-78
2021/04/13 12:21:28;;;;;;;6.58;4.60;;;;;;;4.96;77.90;101271.16;1684553;83;25823;-80
2021/04/13 12:23:58;;;;;;;11.38;4.55;;;;;;;5.03;78.43;101273.23;1685269;83;25978;-78
2021/04/13 12:26:43;;;;;;;7.40;4.30;;;;;;;5.12;78.34;101262.69;1660845;84;25761;-77
2021/04/13 12:29:34;;;;;;;5.97;3.85;;;;;;;5.20;77.95;101262.16;1682126;83;26508;-79
2021/04/13 12:32:18;;;;;;;7.17;3.22;;;;;;;5.21;77.39;101262.06;1652040;84;25778;-79
2021/04/13 12:34:58;;;;;;;5.62;3.65;;;;;;;5.23;77.44;101261.46;1683732;83;26417;-81
2021/04/13 12:37:47;;;;;;;6.67;4.05;;;;;;;5.25;77.30;101259.59;1685013;83;25483;-84
2021/04/13 12:40:24;;;;;;;9.10;4.35;;;;;;;5.31;77.40;101258.33;1682704;83;25368;-82
2021/04/13 12:42:57;;;;;;;8.73;4.65;;;;;;;5.37;77.04;101251.41;1650640;85;25555;-78